Time;durP1;ratioP1;P1;durP2;ratioP2;P2;SDS_P1;SDS_P2;PMS_P1;PMS_P2;Temp;Humidity;BMP_temperature;BMP_pressure;BME280_temperature;BME280_humidity;BME280_pressure;Samples;Min_cycle;Max_cycle;Signal;HPM_P1;HPM_P2
2021/09/18 00:00:05;;;;;;;12.55;7.95;;;;;;;;;;5034773;28;20017;-88
2021/09/18 00:02:31;;;;;;;19.50;8.63;;;;;;;;;;5034686;28;20022;-88
2021/09/18 00:04:56;;;;;;;15.52;8.82;;;;;;;;;;5034958;28;20021;-88
2021/09/18 00:07:21;;;;;;;18.23;8.15;;;;;;;;;;5035862;28;20117;-88
2021/09/18 00:09:47;;;;;;;13.02;7.82;;;;;;;;;;5034270;28;20465;-88
2021/09/18 00:12:12;;;;;;;12.40;7.75;;;;;;;;;;5034765;28;20017;-88
2021/09/18 00:14:39;;;;;;;14.63;9.00;;;;;;;;;;5034734;28;20081;-88
2021/09/18 00:17:04;;;;;;;13.88;8.52;;;;;;;;;;5034571;28;20469;-87
2021/09/18 00:19:33;;;;;;;13.27;8.45;;;;;;;;;;5034638;28;20032;-88
2021/09/18 00:21:58;;;;;;;15.45;8.40;;;;;;;;;;5034470;28;20397;-88
2021/09/18 00:24:23;;;;;;;13.10;8.02;;;;;;;;;;5034276;28;20021;-87
2021/09/18 00:26:49;;;;;;;13.30;8.57;;;;;;;;;;5038224;28;20021;-87
2021/09/18 00:29:16;;;;;;;13.13;7.93;;;;;;;;;;5037818;28;20033;-87
2021/09/18 00:31:41;;;;;;;13.98;8.30;;;;;;;;;;5034094;28;20075;-88
2021/09/18 00:34:06;;;;;;;13.88;7.65;;;;;;;;;;5034176;28;20022;-87
2021/09/18 00:36:31;;;;;;;13.52;7.88;;;;;;;;;;5035522;28;20476;-87
2021/09/18 00:38:57;;;;;;;13.35;7.05;;;;;;;;;;5034062;28;20018;-88
2021/09/18 00:41:22;;;;;;;15.23;7.60;;;;;;;;;;5033732;28;20017;-87
2021/09/18 00:43:51;;;;;;;12.48;7.95;;;;;;;;;;5032963;28;20099;-88
2021/09/18 00:46:16;;;;;;;14.70;8.10;;;;;;;;;;5034028;28;20018;-88
2021/09/18 00:48:41;;;;;;;13.48;7.82;;;;;;;;;;5033383;28;20059;-87
2021/09/18 00:51:06;;;;;;;13.95;8.13;;;;;;;;;;5033506;28;20670;-87
2021/09/18 00:53:32;;;;;;;15.60;7.80;;;;;;;;;;5033776;28;20020;-87
2021/09/18 00:55:57;;;;;;;13.48;8.07;;;;;;;;;;5033935;28;20116;-87
2021/09/18 00:58:22;;;;;;;12.27;7.53;;;;;;;;;;5038323;28;20397;-88
2021/09/18 01:00:47;;;;;;;10.80;7.10;;;;;;;;;;5043191;28;20033;-87
2021/09/18 01:03:13;;;;;;;13.23;7.68;;;;;;;;;;5033616;28;20025;-87
2021/09/18 01:05:39;;;;;;;12.98;7.57;;;;;;;;;;5033485;28;20017;-87
2021/09/18 01:08:04;;;;;;;13.43;7.90;;;;;;;;;;5033647;28;20026;-87
2021/09/18 01:10:29;;;;;;;13.95;7.53;;;;;;;;;;5032793;28;20025;-86
2021/09/18 01:12:58;;;;;;;14.43;7.72;;;;;;;;;;5033379;28;20027;-88
2021/09/18 01:15:25;;;;;;;14.68;7.55;;;;;;;;;;5032992;28;20028;-87
2021/09/18 01:17:50;;;;;;;14.13;7.22;;;;;;;;;;5033610;28;20013;-87
2021/09/18 01:20:15;;;;;;;12.45;7.00;;;;;;;;;;5033430;28;20108;-88
2021/09/18 01:22:41;;;;;;;13.35;7.57;;;;;;;;;;5033412;28;20059;-87
2021/09/18 01:25:07;;;;;;;14.93;8.00;;;;;;;;;;5033471;28;20061;-87
2021/09/18 01:27:32;;;;;;;14.32;7.95;;;;;;;;;;5034313;28;20660;-88
2021/09/18 01:29:57;;;;;;;14.32;7.78;;;;;;;;;;5034281;28;20435;-87
2021/09/18 01:32:22;;;;;;;13.98;7.28;;;;;;;;;;5032407;28;20541;-87
2021/09/18 01:34:49;;;;;;;13.70;7.20;;;;;;;;;;5034306;28;20009;-87
2021/09/18 01:37:14;;;;;;;10.93;6.85;;;;;;;;;;5033096;28;20083;-87
2021/09/18 01:39:39;;;;;;;10.82;7.15;;;;;;;;;;5034271;28;20026;-87
2021/09/18 01:42:04;;;;;;;11.63;7.00;;;;;;;;;;5033030;28;20487;-87
2021/09/18 01:44:30;;;;;;;12.10;6.90;;;;;;;;;;5032737;28;20431;-87
2021/09/18 01:46:55;;;;;;;14.52;7.18;;;;;;;;;;5033019;28;20037;-87
2021/09/18 01:49:20;;;;;;;15.82;7.53;;;;;;;;;;5032662;28;20033;-88
2021/09/18 01:51:59;;;;;;;16.25;7.70;;;;;;;;;;5032758;28;20013;-87
2021/09/18 01:54:28;;;;;;;15.48;7.35;;;;;;;;;;5032342;28;20104;-87
2021/09/18 01:56:53;;;;;;;14.05;7.93;;;;;;;;;;5032380;28;20014;-87
2021/09/18 01:59:18;;;;;;;13.88;7.63;;;;;;;;;;5032924;28;20495;-87
2021/09/18 02:01:43;;;;;;;11.52;7.13;;;;;;;;;;5032384;28;20026;-87
2021/09/18 02:04:08;;;;;;;18.40;8.63;;;;;;;;;;5032303;28;20033;-87
2021/09/18 02:06:34;;;;;;;14.40;7.20;;;;;;;;;;5032651;28;20021;-87
2021/09/18 02:08:59;;;;;;;11.10;7.20;;;;;;;;;;5032351;28;20014;-87
2021/09/18 02:11:24;;;;;;;12.98;7.70;;;;;;;;;;5033689;28;20558;-87
2021/09/18 02:13:49;;;;;;;12.88;7.47;;;;;;;;;;5032024;28;20473;-87
2021/09/18 02:16:14;;;;;;;13.85;6.57;;;;;;;;;;5031935;28;20025;-87
2021/09/18 02:18:40;;;;;;;13.45;7.60;;;;;;;;;;5032258;28;20025;-87
2021/09/18 02:21:05;;;;;;;13.13;7.40;;;;;;;;;;5032062;28;20068;-87
2021/09/18 02:23:30;;;;;;;15.63;7.43;;;;;;;;;;5032267;28;20505;-87
2021/09/18 02:25:55;;;;;;;12.95;6.40;;;;;;;;;;5031900;28;20491;-87
2021/09/18 02:28:21;;;;;;;15.88;7.60;;;;;;;;;;5032233;28;20032;-87
2021/09/18 02:30:46;;;;;;;11.93;7.70;;;;;;;;;;5031945;28;20481;-87
2021/09/18 02:33:11;;;;;;;18.33;7.07;;;;;;;;;;5032174;28;20108;-87
2021/09/18 02:35:36;;;;;;;11.60;6.75;;;;;;;;;;5032063;28;20029;-87
2021/09/18 02:38:02;;;;;;;17.42;7.35;;;;;;;;;;5032066;28;20036;-87
2021/09/18 02:40:28;;;;;;;13.40;6.53;;;;;;;;;;5032250;28;20021;-87
2021/09/18 02:42:55;;;;;;;10.73;6.32;;;;;;;;;;5032016;28;20021;-87
2021/09/18 02:45:21;;;;;;;11.73;6.72;;;;;;;;;;5030794;28;20017;-87
2021/09/18 02:47:47;;;;;;;13.25;7.35;;;;;;;;;;5032665;28;20377;-88
2021/09/18 02:50:13;;;;;;;12.85;7.80;;;;;;;;;;5031936;28;20109;-87
2021/09/18 02:52:39;;;;;;;11.98;6.90;;;;;;;;;;5032000;28;20075;-87
2021/09/18 02:55:05;;;;;;;14.35;7.50;;;;;;;;;;5032944;28;20026;-87
2021/09/18 02:57:30;;;;;;;12.82;7.07;;;;;;;;;;5031667;28;20064;-87
2021/09/18 02:59:56;;;;;;;15.35;7.68;;;;;;;;;;5031788;28;20029;-87
2021/09/18 03:02:21;;;;;;;13.35;8.23;;;;;;;;;;5031562;28;20079;-87
2021/09/18 03:04:46;;;;;;;16.13;8.18;;;;;;;;;;5033160;28;20544;-88
2021/09/18 03:07:11;;;;;;;15.05;7.78;;;;;;;;;;5034214;28;20017;-87
2021/09/18 03:09:36;;;;;;;13.27;7.80;;;;;;;;;;5036032;28;20013;-87
2021/09/18 03:12:02;;;;;;;16.67;7.28;;;;;;;;;;5035274;28;20112;-87
2021/09/18 03:14:27;;;;;;;11.15;7.50;;;;;;;;;;5035293;28;20025;-87
2021/09/18 03:16:52;;;;;;;12.70;7.30;;;;;;;;;;5037117;28;20024;-87
2021/09/18 03:19:17;;;;;;;12.95;7.55;;;;;;;;;;5035906;28;20036;-87
2021/09/18 03:21:43;;;;;;;14.55;8.00;;;;;;;;;;5035671;28;20044;-88
2021/09/18 03:24:08;;;;;;;16.25;8.20;;;;;;;;;;5035464;28;20068;-87
2021/09/18 03:26:34;;;;;;;14.65;7.63;;;;;;;;;;5035431;28;20028;-87
2021/09/18 03:28:59;;;;;;;14.13;7.05;;;;;;;;;;5036702;28;20063;-87
2021/09/18 03:31:24;;;;;;;11.25;6.70;;;;;;;;;;5037730;28;20532;-87
2021/09/18 03:33:49;;;;;;;17.85;7.63;;;;;;;;;;5047884;28;20045;-87
2021/09/18 03:36:14;;;;;;;17.48;9.15;;;;;;;;;;5035615;28;20020;-87
2021/09/18 03:38:40;;;;;;;15.50;8.95;;;;;;;;;;5035460;28;20096;-88
2021/09/18 03:41:05;;;;;;;13.55;7.57;;;;;;;;;;5034994;28;20448;-87
2021/09/18 03:43:30;;;;;;;20.13;8.63;;;;;;;;;;5035016;28;20539;-87
2021/09/18 03:45:55;;;;;;;18.35;8.00;;;;;;;;;;5036311;28;20396;-87
2021/09/18 03:48:21;;;;;;;22.25;8.38;;;;;;;;;;5035062;28;20033;-87
2021/09/18 03:50:46;;;;;;;12.65;7.70;;;;;;;;;;5036244;28;20018;-87
2021/09/18 03:53:11;;;;;;;13.07;7.10;;;;;;;;;;5035240;28;20032;-87
2021/09/18 03:55:37;;;;;;;13.60;7.53;;;;;;;;;;5034772;28;20024;-88
2021/09/18 03:58:02;;;;;;;13.15;7.13;;;;;;;;;;5035217;28;20018;-88
2021/09/18 04:00:27;;;;;;;14.48;7.85;;;;;;;;;;5034987;28;20111;-88
2021/09/18 04:02:52;;;;;;;13.27;7.68;;;;;;;;;;5036272;28;20018;-87
2021/09/18 04:05:18;;;;;;;13.85;7.55;;;;;;;;;;5033653;28;20029;-87
2021/09/18 04:07:43;;;;;;;11.02;7.35;;;;;;;;;;5033213;28;20025;-87
2021/09/18 04:10:08;;;;;;;15.65;8.10;;;;;;;;;;5033212;28;20029;-88
2021/09/18 04:12:34;;;;;;;17.27;8.10;;;;;;;;;;5033051;28;20024;-87
2021/09/18 04:14:59;;;;;;;14.63;8.70;;;;;;;;;;5033261;28;20020;-88
2021/09/18 04:17:24;;;;;;;17.88;8.77;;;;;;;;;;5032279;28;20055;-88
2021/09/18 04:19:49;;;;;;;14.52;8.18;;;;;;;;;;5032612;28;20021;-86
2021/09/18 04:22:14;;;;;;;15.50;9.15;;;;;;;;;;5034711;28;20075;-88
2021/09/18 04:24:40;;;;;;;17.67;9.13;;;;;;;;;;5032890;28;20080;-88
2021/09/18 04:27:05;;;;;;;17.92;9.70;;;;;;;;;;5032348;28;20025;-88
2021/09/18 04:29:31;;;;;;;24.88;10.55;;;;;;;;;;5033041;28;20061;-87
2021/09/18 04:31:56;;;;;;;16.75;9.93;;;;;;;;;;5033017;28;20103;-87
2021/09/18 04:34:22;;;;;;;20.58;10.05;;;;;;;;;;5032527;28;20014;-88
2021/09/18 04:36:47;;;;;;;18.20;10.45;;;;;;;;;;5034494;28;20815;-88
2021/09/18 04:39:13;;;;;;;19.50;10.02;;;;;;;;;;5034547;28;20013;-88
2021/09/18 04:41:38;;;;;;;18.40;10.27;;;;;;;;;;5034071;28;20017;-88
2021/09/18 04:44:03;;;;;;;19.27;10.43;;;;;;;;;;5034276;28;20104;-88
2021/09/18 04:46:29;;;;;;;19.02;10.80;;;;;;;;;;5034061;28;20017;-88
2021/09/18 04:48:54;;;;;;;18.98;10.05;;;;;;;;;;5033932;28;20010;-88
2021/09/18 04:51:19;;;;;;;17.50;9.52;;;;;;;;;;5033961;28;20029;-87
2021/09/18 04:53:44;;;;;;;20.00;10.23;;;;;;;;;;5066518;28;20025;-87
2021/09/18 04:56:10;;;;;;;25.60;10.35;;;;;;;;;;5033837;28;20366;-87
2021/09/18 04:58:35;;;;;;;17.60;10.27;;;;;;;;;;5035226;28;20096;-87
2021/09/18 05:01:00;;;;;;;19.83;10.90;;;;;;;;;;5033503;28;20538;-88
2021/09/18 05:03:26;;;;;;;18.20;10.00;;;;;;;;;;5033875;28;20017;-88
2021/09/18 05:05:51;;;;;;;22.33;10.55;;;;;;;;;;5033683;28;20527;-88
2021/09/18 05:08:16;;;;;;;19.60;11.50;;;;;;;;;;5035224;28;20492;-88
2021/09/18 05:10:41;;;;;;;23.25;11.50;;;;;;;;;;5033600;28;20083;-88
2021/09/18 05:13:06;;;;;;;18.92;11.25;;;;;;;;;;5033536;28;20073;-88
2021/09/18 05:15:32;;;;;;;19.13;10.18;;;;;;;;;;5033284;28;20380;-88
2021/09/18 05:17:57;;;;;;;18.40;9.60;;;;;;;;;;5033191;28;20017;-87
2021/09/18 05:20:22;;;;;;;17.52;9.27;;;;;;;;;;5033692;28;20120;-88
2021/09/18 05:22:48;;;;;;;19.63;10.35;;;;;;;;;;5034642;28;20040;-88
2021/09/18 05:25:13;;;;;;;18.25;10.32;;;;;;;;;;5034630;28;20101;-87
2021/09/18 05:27:38;;;;;;;23.27;11.35;;;;;;;;;;5033498;28;20128;-87
2021/09/18 05:30:04;;;;;;;22.85;12.02;;;;;;;;;;5032864;28;20028;-87
2021/09/18 05:32:30;;;;;;;20.92;11.32;;;;;;;;;;5033133;28;20017;-88
2021/09/18 05:34:55;;;;;;;23.80;11.57;;;;;;;;;;5034484;28;20028;-88
2021/09/18 05:37:20;;;;;;;32.13;14.35;;;;;;;;;;5033116;28;20026;-88
2021/09/18 05:39:45;;;;;;;23.15;11.70;;;;;;;;;;5033287;28;20075;-87
2021/09/18 05:42:11;;;;;;;24.30;13.10;;;;;;;;;;5032991;28;20037;-87
2021/09/18 05:44:36;;;;;;;25.10;13.40;;;;;;;;;;5034078;28;20029;-87
2021/09/18 05:47:01;;;;;;;24.00;13.45;;;;;;;;;;5032785;28;20472;-88
2021/09/18 05:49:26;;;;;;;28.08;12.88;;;;;;;;;;5032938;28;20021;-88
2021/09/18 05:51:51;;;;;;;29.35;14.13;;;;;;;;;;5037584;28;20016;-88
2021/09/18 05:54:17;;;;;;;25.60;14.40;;;;;;;;;;5042350;28;20033;-87
2021/09/18 05:56:42;;;;;;;27.17;15.45;;;;;;;;;;5032762;28;20028;-88
2021/09/18 05:59:07;;;;;;;29.15;15.40;;;;;;;;;;5065909;28;20420;-88
2021/09/18 06:01:32;;;;;;;30.58;15.80;;;;;;;;;;5032800;28;20056;-88
2021/09/18 06:03:57;;;;;;;33.67;16.38;;;;;;;;;;5032564;28;20041;-88
2021/09/18 06:06:23;;;;;;;36.45;15.75;;;;;;;;;;5032488;28;20477;-88
2021/09/18 06:08:48;;;;;;;29.55;15.43;;;;;;;;;;5032596;28;20409;-86
2021/09/18 06:11:13;;;;;;;32.95;15.32;;;;;;;;;;5039908;28;20038;-88
2021/09/18 06:13:38;;;;;;;27.83;15.32;;;;;;;;;;5040530;28;20026;-88
2021/09/18 06:16:04;;;;;;;31.65;15.85;;;;;;;;;;5032197;28;20083;-87
2021/09/18 06:18:29;;;;;;;35.22;17.75;;;;;;;;;;5032461;28;20052;-88
2021/09/18 06:20:56;;;;;;;34.38;17.48;;;;;;;;;;5033466;28;20473;-87
2021/09/18 06:23:22;;;;;;;32.22;17.27;;;;;;;;;;5033518;28;20033;-88
2021/09/18 06:25:47;;;;;;;35.40;17.52;;;;;;;;;;5032460;28;20034;-87
2021/09/18 06:28:12;;;;;;;39.72;18.98;;;;;;;;;;5032230;28;20493;-87
2021/09/18 06:30:37;;;;;;;40.00;18.75;;;;;;;;;;5032298;28;20468;-87
2021/09/18 06:33:03;;;;;;;35.05;18.38;;;;;;;;;;5032969;28;20037;-88
2021/09/18 06:35:28;;;;;;;40.35;19.55;;;;;;;;;;5033352;28;20100;-88
2021/09/18 06:37:53;;;;;;;35.92;18.25;;;;;;;;;;5032008;28;20056;-87
2021/09/18 06:40:19;;;;;;;38.00;19.75;;;;;;;;;;5039694;28;20044;-88
2021/09/18 06:42:45;;;;;;;43.05;21.27;;;;;;;;;;5037635;28;20531;-88
2021/09/18 06:45:10;;;;;;;40.15;20.48;;;;;;;;;;5031273;28;20025;-87
2021/09/18 06:47:36;;;;;;;45.10;21.33;;;;;;;;;;5023202;28;20025;-88
2021/09/18 06:50:02;;;;;;;49.47;22.33;;;;;;;;;;5019633;28;20114;-88
2021/09/18 06:52:27;;;;;;;46.60;23.42;;;;;;;;;;5031421;28;20469;-88
2021/09/18 06:54:53;;;;;;;45.92;23.67;;;;;;;;;;5031863;28;20022;-88
2021/09/18 06:57:18;;;;;;;48.67;24.77;;;;;;;;;;5037533;28;20076;-87
2021/09/18 06:59:43;;;;;;;53.35;24.17;;;;;;;;;;5065039;28;20026;-89
2021/09/18 07:02:08;;;;;;;49.67;26.00;;;;;;;;;;5032757;28;20079;-88
2021/09/18 07:04:35;;;;;;;47.55;24.02;;;;;;;;;;5032069;28;20026;-88
2021/09/18 07:07:01;;;;;;;51.00;24.98;;;;;;;;;;5032740;28;20026;-89
2021/09/18 07:09:26;;;;;;;48.50;23.50;;;;;;;;;;5031500;28;20025;-89
2021/09/18 07:11:51;;;;;;;48.42;23.20;;;;;;;;;;5031703;28;20396;-88
2021/09/18 07:14:16;;;;;;;47.88;22.52;;;;;;;;;;5034741;28;20017;-89
2021/09/18 07:16:41;;;;;;;45.70;20.70;;;;;;;;;;5076030;28;20071;-88
2021/09/18 07:19:07;;;;;;;41.97;21.60;;;;;;;;;;5018982;28;20068;-88
2021/09/18 07:21:32;;;;;;;45.28;22.48;;;;;;;;;;5065037;28;20462;-88
2021/09/18 07:23:57;;;;;;;43.92;21.73;;;;;;;;;;5031696;28;20089;-89
2021/09/18 07:26:22;;;;;;;42.88;22.27;;;;;;;;;;5046959;28;20464;-88
2021/09/18 07:28:47;;;;;;;45.17;22.58;;;;;;;;;;5032819;28;20014;-88
2021/09/18 07:31:13;;;;;;;39.75;20.27;;;;;;;;;;5031506;28;20500;-89
2021/09/18 07:33:38;;;;;;;40.55;21.35;;;;;;;;;;5032389;28;20060;-89
2021/09/18 07:36:03;;;;;;;43.88;20.38;;;;;;;;;;5031076;28;20022;-89
2021/09/18 07:38:29;;;;;;;36.80;20.48;;;;;;;;;;5031187;28;20021;-88
2021/09/18 07:40:55;;;;;;;50.13;23.35;;;;;;;;;;5038965;28;20032;-88
2021/09/18 07:43:20;;;;;;;45.25;22.42;;;;;;;;;;5033061;28;20022;-89
2021/09/18 07:45:45;;;;;;;42.17;21.65;;;;;;;;;;5032779;28;20611;-89
2021/09/18 07:48:10;;;;;;;44.35;21.88;;;;;;;;;;5031056;28;20034;-89
2021/09/18 07:50:35;;;;;;;42.58;21.75;;;;;;;;;;5032462;28;20025;-89
2021/09/18 07:53:01;;;;;;;47.08;24.33;;;;;;;;;;5047390;28;20436;-89
2021/09/18 07:55:27;;;;;;;55.17;25.33;;;;;;;;;;5042617;28;20072;-88
2021/09/18 07:57:52;;;;;;;49.63;25.50;;;;;;;;;;5068517;28;20014;-88
2021/09/18 08:00:18;;;;;;;43.03;21.58;;;;;;;;;;5034847;28;20036;-88
2021/09/18 08:02:43;;;;;;;39.30;19.50;;;;;;;;;;5034951;28;20071;-89
2021/09/18 08:05:08;;;;;;;42.13;21.73;;;;;;;;;;5035424;28;20033;-88
2021/09/18 08:07:34;;;;;;;44.65;23.08;;;;;;;;;;5034123;28;20416;-88
2021/09/18 08:10:00;;;;;;;43.65;21.92;;;;;;;;;;5034321;28;20033;-88
2021/09/18 08:12:26;;;;;;;46.83;22.30;;;;;;;;;;5033697;28;20021;-88
2021/09/18 08:14:52;;;;;;;44.75;24.02;;;;;;;;;;5036068;28;20022;-89
2021/09/18 08:17:17;;;;;;;51.60;22.30;;;;;;;;;;5036034;28;20376;-88
2021/09/18 08:19:42;;;;;;;41.47;22.02;;;;;;;;;;5033573;28;20013;-88
2021/09/18 08:22:07;;;;;;;35.80;18.73;;;;;;;;;;5042050;28;20020;-88
2021/09/18 08:24:33;;;;;;;40.03;20.75;;;;;;;;;;5034255;28;20021;-88
2021/09/18 08:26:58;;;;;;;38.05;19.33;;;;;;;;;;5030204;28;20025;-88
2021/09/18 08:29:23;;;;;;;36.35;19.52;;;;;;;;;;5034383;28;20064;-89
2021/09/18 08:31:48;;;;;;;43.10;20.25;;;;;;;;;;5034138;28;20018;-88
2021/09/18 08:34:14;;;;;;;42.60;20.90;;;;;;;;;;5047618;28;20112;-88
2021/09/18 08:36:39;;;;;;;36.13;18.05;;;;;;;;;;5034665;28;20025;-89
2021/09/18 08:39:04;;;;;;;36.67;19.35;;;;;;;;;;5028164;28;20021;-88
2021/09/18 08:41:30;;;;;;;39.65;19.50;;;;;;;;;;5034036;28;20052;-88
2021/09/18 08:43:55;;;;;;;32.30;16.23;;;;;;;;;;5033969;28;20032;-88
2021/09/18 08:46:21;;;;;;;33.88;17.70;;;;;;;;;;5024879;28;20404;-88
2021/09/18 08:48:46;;;;;;;32.92;17.60;;;;;;;;;;5033731;28;20116;-88
2021/09/18 08:51:12;;;;;;;30.88;16.45;;;;;;;;;;5035316;28;20449;-89
2021/09/18 08:53:37;;;;;;;32.65;16.92;;;;;;;;;;5032679;28;20018;-89
2021/09/18 08:56:03;;;;;;;31.23;15.48;;;;;;;;;;5033070;28;20041;-89
2021/09/18 08:58:28;;;;;;;35.05;17.00;;;;;;;;;;5033479;28;20018;-88
2021/09/18 09:00:54;;;;;;;36.15;17.15;;;;;;;;;;5033228;28;20081;-89
2021/09/18 09:03:30;;;;;;;33.38;16.13;;;;;;;;;;5033439;28;20560;-89
2021/09/18 09:06:00;;;;;;;34.10;18.05;;;;;;;;;;5034900;28;20055;-88
2021/09/18 09:08:25;;;;;;;27.80;14.40;;;;;;;;;;5034832;28;20060;-89
2021/09/18 09:10:50;;;;;;;32.67;15.45;;;;;;;;;;5033569;28;20021;-89
2021/09/18 09:13:20;;;;;;;32.35;15.52;;;;;;;;;;5033360;28;20071;-88
2021/09/18 09:15:47;;;;;;;31.73;15.57;;;;;;;;;;5023336;28;20025;-89
2021/09/18 09:18:14;;;;;;;29.55;14.73;;;;;;;;;;5033702;28;20021;-89
2021/09/18 09:20:39;;;;;;;35.90;17.88;;;;;;;;;;5033656;28;20025;-88
2021/09/18 09:23:13;;;;;;;33.35;16.20;;;;;;;;;;5033365;28;20033;-89
2021/09/18 09:25:38;;;;;;;26.83;12.57;;;;;;;;;;5033680;28;20060;-88
2021/09/18 09:28:22;;;;;;;34.33;16.48;;;;;;;;;;5032896;28;20116;-89
2021/09/18 09:30:47;;;;;;;32.38;16.77;;;;;;;;;;5033354;28;20108;-88
2021/09/18 09:33:12;;;;;;;29.63;15.98;;;;;;;;;;5034562;28;20071;-89
2021/09/18 09:35:38;;;;;;;33.25;15.98;;;;;;;;;;5034247;28;20461;-88
2021/09/18 09:38:04;;;;;;;32.78;15.77;;;;;;;;;;5033273;28;20013;-89
2021/09/18 09:40:31;;;;;;;36.83;17.98;;;;;;;;;;5033354;28;20021;-89
2021/09/18 09:42:58;;;;;;;43.00;17.58;;;;;;;;;;5047252;28;20020;-88
2021/09/18 09:45:23;;;;;;;36.22;18.30;;;;;;;;;;5033116;28;20029;-88
2021/09/18 09:48:07;;;;;;;35.13;17.15;;;;;;;;;;5034207;28;20350;-88
2021/09/18 09:50:33;;;;;;;36.55;16.42;;;;;;;;;;5066285;28;20052;-89
2021/09/18 09:52:58;;;;;;;32.55;17.67;;;;;;;;;;5036061;28;20531;-89
2021/09/18 09:55:24;;;;;;;42.15;20.23;;;;;;;;;;5033586;28;20041;-88
2021/09/18 09:57:59;;;;;;;41.75;20.13;;;;;;;;;;5032753;28;20017;-89
2021/09/18 10:00:34;;;;;;;35.10;19.25;;;;;;;;;;5032167;28;20116;-88
2021/09/18 10:02:59;;;;;;;43.88;20.67;;;;;;;;;;5032462;28;20032;-89
2021/09/18 10:05:24;;;;;;;38.90;20.38;;;;;;;;;;5032745;28;20473;-87
2021/09/18 10:07:50;;;;;;;38.20;18.30;;;;;;;;;;5040660;28;20076;-89
2021/09/18 10:10:15;;;;;;;35.15;18.45;;;;;;;;;;5063930;28;20025;-88
2021/09/18 10:12:40;;;;;;;34.22;17.20;;;;;;;;;;5032605;28;20009;-89
2021/09/18 10:15:07;;;;;;;31.30;17.45;;;;;;;;;;5032424;28;20020;-89
2021/09/18 10:17:33;;;;;;;34.08;16.10;;;;;;;;;;5065007;28;20017;-88
2021/09/18 10:20:08;;;;;;;34.33;16.33;;;;;;;;;;5032645;28;20469;-89
2021/09/18 10:25:23;;;;;;;29.67;16.45;;;;;;;;;;5034159;28;20488;-89
2021/09/18 10:28:09;;;;;;;35.53;18.45;;;;;;;;;;5032320;28;20040;-88
2021/09/18 10:30:37;;;;;;;36.17;19.02;;;;;;;;;;5032371;28;20026;-88
2021/09/18 10:33:03;;;;;;;30.00;14.48;;;;;;;;;;5065298;28;20025;-88
2021/09/18 10:35:28;;;;;;;27.00;14.55;;;;;;;;;;5031673;28;20614;-89
2021/09/18 10:37:54;;;;;;;29.35;14.95;;;;;;;;;;5034737;28;20056;-89
2021/09/18 10:40:19;;;;;;;35.28;16.63;;;;;;;;;;5044586;28;20032;-88
2021/09/18 10:42:45;;;;;;;34.15;16.52;;;;;;;;;;5032354;28;20100;-88
2021/09/18 10:45:12;;;;;;;26.92;14.25;;;;;;;;;;5032099;28;20468;-88
2021/09/18 10:47:38;;;;;;;20.10;10.80;;;;;;;;;;5031876;28;20030;-88
2021/09/18 10:50:26;;;;;;;27.52;12.52;;;;;;;;;;5032889;28;20075;-88
2021/09/18 10:52:57;;;;;;;20.13;10.75;;;;;;;;;;5032073;28;20481;-88
2021/09/18 10:55:22;;;;;;;23.58;12.10;;;;;;;;;;5065009;28;20022;-88
2021/09/18 10:57:51;;;;;;;24.42;11.88;;;;;;;;;;5031949;28;20028;-88
2021/09/18 11:00:19;;;;;;;21.63;12.05;;;;;;;;;;5056489;28;20520;-88
2021/09/18 11:02:47;;;;;;;21.08;12.30;;;;;;;;;;5033674;28;20013;-88
2021/09/18 11:05:22;;;;;;;22.38;11.32;;;;;;;;;;5030286;28;20072;-88
2021/09/18 11:07:51;;;;;;;24.85;13.27;;;;;;;;;;5031237;28;20064;-88
2021/09/18 11:10:36;;;;;;;24.13;13.20;;;;;;;;;;5030485;28;20051;-88
2021/09/18 11:13:08;;;;;;;23.92;12.95;;;;;;;;;;5017776;28;20120;-88
2021/09/18 11:15:38;;;;;;;25.75;14.00;;;;;;;;;;5077069;28;20017;-89
2021/09/18 11:18:30;;;;;;;28.63;15.13;;;;;;;;;;5016598;28;20542;-88
2021/09/18 11:20:59;;;;;;;25.73;14.30;;;;;;;;;;5029729;28;20476;-88
2021/09/18 11:23:31;;;;;;;20.73;12.30;;;;;;;;;;5030419;28;20053;-88
2021/09/18 11:25:56;;;;;;;;;;;;;;;;;;5030295;28;20026;-88
2021/09/18 11:28:31;;;;;;;24.23;10.52;;;;;;;;;;5062296;28;19913;-88
2021/09/18 11:30:56;;;;;;;22.55;12.88;;;;;;;;;;5036283;28;20033;-89
2021/09/18 11:33:23;;;;;;;23.20;11.55;;;;;;;;;;5035721;28;20028;-89
2021/09/18 11:35:52;;;;;;;23.98;13.23;;;;;;;;;;5035452;28;20044;-89
2021/09/18 11:38:20;;;;;;;25.75;13.02;;;;;;;;;;5035509;28;20543;-89
2021/09/18 11:40:46;;;;;;;21.23;11.80;;;;;;;;;;5035633;28;20087;-89
2021/09/18 11:43:11;;;;;;;25.45;11.15;;;;;;;;;;5035347;28;20026;-89
2021/09/18 11:45:39;;;;;;;20.38;10.65;;;;;;;;;;5035439;28;20021;-88
2021/09/18 11:48:04;;;;;;;23.85;11.40;;;;;;;;;;5034695;28;20030;-88
2021/09/18 11:50:34;;;;;;;22.40;12.30;;;;;;;;;;5034899;28;20108;-88
2021/09/18 11:53:00;;;;;;;16.83;9.43;;;;;;;;;;5036488;28;20104;-88
2021/09/18 11:55:40;;;;;;;16.42;9.02;;;;;;;;;;5034794;28;20018;-88
2021/09/18 11:58:11;;;;;;;19.33;8.75;;;;;;;;;;5034442;28;20056;-89
2021/09/18 12:00:37;;;;;;;15.63;9.00;;;;;;;;;;5038028;28;20026;-88
2021/09/18 12:03:03;;;;;;;18.38;8.68;;;;;;;;;;5035142;28;20469;-89
2021/09/18 12:05:28;;;;;;;15.98;8.82;;;;;;;;;;5034771;28;20022;-88
2021/09/18 12:07:53;;;;;;;16.85;8.60;;;;;;;;;;5034671;28;20037;-89
2021/09/18 12:10:20;;;;;;;17.08;9.23;;;;;;;;;;5034837;28;20108;-89
2021/09/18 12:12:46;;;;;;;15.45;9.15;;;;;;;;;;5034806;28;20021;-88
2021/09/18 12:15:12;;;;;;;20.15;9.18;;;;;;;;;;5034618;28;20036;-89
2021/09/18 12:17:38;;;;;;;15.27;8.07;;;;;;;;;;5067857;28;20025;-89
2021/09/18 12:20:11;;;;;;;15.65;7.70;;;;;;;;;;5035857;28;20025;-88
2021/09/18 12:22:36;;;;;;;13.07;7.63;;;;;;;;;;5034450;28;20075;-88
2021/09/18 12:25:02;;;;;;;16.10;7.68;;;;;;;;;;5034334;28;20028;-88
2021/09/18 12:27:32;;;;;;;15.15;7.25;;;;;;;;;;5034347;28;20025;-89
2021/09/18 12:30:02;;;;;;;16.23;8.25;;;;;;;;;;5035594;28;20514;-89
2021/09/18 12:32:28;;;;;;;16.55;7.60;;;;;;;;;;5034259;28;20079;-88
2021/09/18 12:34:57;;;;;;;12.82;7.35;;;;;;;;;;5048491;28;20029;-89
2021/09/18 12:37:27;;;;;;;16.27;7.13;;;;;;;;;;5034583;28;20025;-89
2021/09/18 12:39:52;;;;;;;13.88;7.43;;;;;;;;;;5034501;28;20143;-89
2021/09/18 12:42:17;;;;;;;15.65;6.90;;;;;;;;;;5034388;28;20053;-88
2021/09/18 12:44:42;;;;;;;12.57;7.55;;;;;;;;;;5033713;28;20021;-89
2021/09/18 12:47:19;;;;;;;13.07;7.07;;;;;;;;;;5034083;28;20028;-89
2021/09/18 12:49:45;;;;;;;13.35;6.60;;;;;;;;;;5033907;28;20079;-89
2021/09/18 12:52:10;;;;;;;11.02;5.60;;;;;;;;;;5034381;28;20420;-89
2021/09/18 12:54:42;;;;;;;10.73;4.85;;;;;;;;;;5033998;28;20044;-88
2021/09/18 12:57:07;;;;;;;10.30;5.28;;;;;;;;;;5035008;28;20013;-88
2021/09/18 12:59:43;;;;;;;8.95;4.70;;;;;;;;;;5033963;28;20529;-88
2021/09/18 13:02:08;;;;;;;13.30;6.03;;;;;;;;;;5034096;28;20021;-88
2021/09/18 13:04:34;;;;;;;11.55;6.30;;;;;;;;;;5035275;28;20110;-89
2021/09/18 13:06:59;;;;;;;10.55;6.22;;;;;;;;;;5033742;28;20167;-88
2021/09/18 13:09:26;;;;;;;11.38;6.18;;;;;;;;;;5066199;28;20013;-88
2021/09/18 13:11:52;;;;;;;12.65;5.43;;;;;;;;;;5034886;28;20403;-88
2021/09/18 13:14:19;;;;;;;11.90;5.20;;;;;;;;;;5066743;28;20013;-88
2021/09/18 13:16:55;;;;;;;8.38;4.45;;;;;;;;;;5034844;28;20397;-88
2021/09/18 13:19:21;;;;;;;9.65;5.07;;;;;;;;;;5035637;28;20091;-88
2021/09/18 13:21:46;;;;;;;10.30;5.47;;;;;;;;;;5044533;28;20461;-88
2021/09/18 13:24:11;;;;;;;8.82;4.90;;;;;;;;;;5033356;28;20076;-88
2021/09/18 13:26:37;;;;;;;13.77;5.72;;;;;;;;;;5034871;28;20104;-88
2021/09/18 13:29:02;;;;;;;11.65;4.32;;;;;;;;;;5034854;28;20384;-88
2021/09/18 13:31:28;;;;;;;9.30;4.72;;;;;;;;;;5033060;28;20067;-88
2021/09/18 13:33:53;;;;;;;7.45;4.30;;;;;;;;;;5034676;28;20100;-88
2021/09/18 13:36:19;;;;;;;5.43;3.60;;;;;;;;;;5033180;28;20068;-88
2021/09/18 13:38:44;;;;;;;7.45;3.70;;;;;;;;;;5033370;28;20029;-88
2021/09/18 13:41:09;;;;;;;5.10;3.38;;;;;;;;;;5033480;28;20017;-88
2021/09/18 13:43:34;;;;;;;6.75;3.60;;;;;;;;;;5046067;28;20457;-89
2021/09/18 13:46:00;;;;;;;7.72;4.32;;;;;;;;;;5032057;28;20025;-87
2021/09/18 13:48:25;;;;;;;12.95;4.15;;;;;;;;;;5031690;28;20461;-88
2021/09/18 13:50:50;;;;;;;9.27;4.95;;;;;;;;;;5031059;28;20029;-88
2021/09/18 13:53:15;;;;;;;8.35;4.05;;;;;;;;;;5033003;28;20100;-88
2021/09/18 13:55:40;;;;;;;7.55;3.72;;;;;;;;;;5032905;28;20108;-88
2021/09/18 13:58:06;;;;;;;8.50;4.38;;;;;;;;;;5031258;28;20124;-88
2021/09/18 14:00:31;;;;;;;6.07;4.25;;;;;;;;;;5031211;28;20022;-88
2021/09/18 14:02:56;;;;;;;8.68;4.53;;;;;;;;;;5031432;28;20021;-89
2021/09/18 14:05:21;;;;;;;7.78;4.70;;;;;;;;;;5030879;28;20018;-88
2021/09/18 14:07:47;;;;;;;7.28;3.67;;;;;;;;;;5030986;28;20021;-88
2021/09/18 14:10:12;;;;;;;5.85;3.30;;;;;;;;;;5030667;28;20032;-87
2021/09/18 14:12:37;;;;;;;8.50;3.20;;;;;;;;;;5032306;28;20021;-88
2021/09/18 14:15:03;;;;;;;4.53;2.83;;;;;;;;;;5033911;28;20013;-88
2021/09/18 14:17:28;;;;;;;4.53;2.17;;;;;;;;;;5047426;28;20025;-88
2021/09/18 14:19:54;;;;;;;3.10;2.10;;;;;;;;;;5032458;28;20385;-88